Time;durP1;ratioP1;P1;durP2;ratioP2;P2;SDS_P1;SDS_P2;PMS_P1;PMS_P2;Temp;Humidity;BMP_temperature;BMP_pressure;BME280_temperature;BME280_humidity;BME280_pressure;Samples;Min_cycle;Max_cycle;Signal;HPM_P1;HPM_P2
2021/03/12 00:01:58;;;;;;;3.50;1.13;;;8.30;99.90;;;;;;4160230;28;20018;-69
2021/03/12 00:04:00;;;;;;;5.60;1.75;;;8.20;99.90;;;;;;4159541;28;20030;-69
2021/03/12 00:06:11;;;;;;;5.75;1.65;;;8.20;99.90;;;;;;4151227;28;20033;-68
2021/03/12 00:08:12;;;;;;;7.70;1.38;;;8.30;99.90;;;;;;4159717;28;20038;-68
2021/03/12 00:10:21;;;;;;;6.35;1.65;;;8.20;99.90;;;;;;4151758;28;20033;-68
2021/03/12 00:12:22;;;;;;;4.00;1.33;;;8.20;99.90;;;;;;4172119;28;20072;-68
2021/03/12 00:14:22;;;;;;;4.40;1.23;;;8.20;99.90;;;;;;4160719;28;20029;-68
2021/03/12 00:16:23;;;;;;;6.47;1.77;;;8.20;99.90;;;;;;4159803;28;20046;-68
2021/03/12 00:18:33;;;;;;;7.50;1.67;;;8.30;99.90;;;;;;4159282;28;20461;-69
2021/03/12 00:20:37;;;;;;;7.60;1.60;;;8.20;99.90;;;;;;4159190;28;20045;-68
2021/03/12 00:22:38;;;;;;;13.43;2.25;;;8.20;99.90;;;;;;4158533;28;20033;-68
2021/03/12 00:24:39;;;;;;;6.53;1.33;;;8.20;99.90;;;;;;4137360;28;20478;-68
2021/03/12 00:26:40;;;;;;;6.50;1.60;;;8.10;99.90;;;;;;4150068;28;20044;-68
2021/03/12 00:28:40;;;;;;;5.68;1.70;;;8.10;99.90;;;;;;4158616;28;20034;-68
2021/03/12 00:30:42;;;;;;;9.70;2.13;;;8.10;99.90;;;;;;4157797;28;20108;-68
2021/03/12 00:32:43;;;;;;;8.80;2.03;;;8.10;99.90;;;;;;4152899;28;20068;-68
2021/03/12 00:34:43;;;;;;;13.05;2.47;;;8.10;99.90;;;;;;4154739;28;20025;-68
2021/03/12 00:36:44;;;;;;;10.18;2.13;;;8.10;99.90;;;;;;4158804;28;20531;-68
2021/03/12 00:38:44;;;;;;;5.18;1.75;;;8.10;99.90;;;;;;4160379;28;20029;-68
2021/03/12 00:40:55;;;;;;;10.98;1.92;;;8.10;99.90;;;;;;4157611;28;20041;-68
2021/03/12 00:42:56;;;;;;;8.45;2.28;;;8.10;99.90;;;;;;4160245;28;20189;-68
2021/03/12 00:44:57;;;;;;;8.57;2.13;;;8.10;99.90;;;;;;4160480;28;20619;-68
2021/03/12 00:46:57;;;;;;;12.80;2.17;;;8.10;99.90;;;;;;4158958;28;20090;-68
2021/03/12 00:48:58;;;;;;;6.38;1.85;;;8.10;99.90;;;;;;4158253;28;20275;-68
2021/03/12 00:50:59;;;;;;;10.00;2.17;;;8.10;99.90;;;;;;4159777;28;20096;-68
2021/03/12 00:53:00;;;;;;;9.55;2.15;;;8.00;99.90;;;;;;4159920;28;20056;-68
2021/03/12 00:55:00;;;;;;;6.13;1.63;;;8.00;99.90;;;;;;4160149;28;20033;-68
2021/03/12 00:57:02;;;;;;;6.60;1.75;;;8.00;99.90;;;;;;4160115;28;20041;-68
2021/03/12 00:59:02;;;;;;;23.80;3.00;;;8.00;99.90;;;;;;4157922;28;20531;-68
2021/03/12 01:01:03;;;;;;;6.88;2.30;;;8.00;99.90;;;;;;4163179;28;20117;-68
2021/03/12 01:03:06;;;;;;;4.80;1.80;;;8.10;99.90;;;;;;4160959;28;20037;-68
2021/03/12 01:05:07;;;;;;;9.60;2.35;;;8.10;99.90;;;;;;4159923;28;20116;-68
2021/03/12 01:07:08;;;;;;;10.45;2.05;;;8.00;99.90;;;;;;4158504;28;20508;-68
2021/03/12 01:09:09;;;;;;;11.32;2.53;;;8.00;99.90;;;;;;4151501;28;20038;-68
2021/03/12 01:11:09;;;;;;;8.77;2.58;;;8.00;99.90;;;;;;4150737;28;20408;-68
2021/03/12 01:13:10;;;;;;;8.38;2.67;;;8.00;99.90;;;;;;4158947;28;20378;-68
2021/03/12 01:15:14;;;;;;;9.52;2.03;;;8.00;99.90;;;;;;4156374;28;20128;-68
2021/03/12 01:17:15;;;;;;;10.23;2.70;;;8.00;99.90;;;;;;4158543;28;20045;-68
2021/03/12 01:19:15;;;;;;;10.50;2.55;;;7.90;99.90;;;;;;4150578;28;20068;-68
2021/03/12 01:21:16;;;;;;;11.07;2.88;;;7.90;99.90;;;;;;4157213;28;20030;-68
2021/03/12 01:23:17;;;;;;;9.43;2.30;;;7.90;99.90;;;;;;4156896;28;20030;-68
2021/03/12 01:25:21;;;;;;;8.75;2.30;;;7.90;99.90;;;;;;4158797;28;20140;-68
2021/03/12 01:27:22;;;;;;;9.07;2.05;;;7.90;99.90;;;;;;4154772;28;20029;-68
2021/03/12 01:29:23;;;;;;;9.68;2.95;;;7.90;99.90;;;;;;4156603;28;20049;-68
2021/03/12 01:31:23;;;;;;;8.25;2.50;;;7.90;99.90;;;;;;4158747;28;20030;-68
2021/03/12 01:33:24;;;;;;;6.80;2.30;;;7.90;99.90;;;;;;4157328;28;20154;-68
2021/03/12 01:35:25;;;;;;;9.80;2.47;;;8.00;99.90;;;;;;4154815;28;20041;-68
2021/03/12 01:37:25;;;;;;;12.48;3.20;;;7.90;99.90;;;;;;4155770;28;20045;-68
2021/03/12 01:39:26;;;;;;;10.13;3.00;;;7.90;99.90;;;;;;4157290;28;20052;-68
2021/03/12 01:41:27;;;;;;;7.35;2.53;;;7.90;99.90;;;;;;4158929;28;20038;-68
2021/03/12 01:43:27;;;;;;;7.78;2.20;;;8.00;99.90;;;;;;4159110;28;20405;-68
2021/03/12 01:45:36;;;;;;;10.10;2.70;;;8.00;99.90;;;;;;4158529;28;20476;-68
2021/03/12 01:47:36;;;;;;;10.00;2.65;;;7.90;99.90;;;;;;4154253;28;20026;-68
2021/03/12 01:49:37;;;;;;;13.60;2.65;;;7.90;99.90;;;;;;4158092;28;20095;-68
2021/03/12 01:51:38;;;;;;;8.45;2.45;;;8.00;99.90;;;;;;4151689;28;20165;-68
2021/03/12 01:53:40;;;;;;;12.43;2.50;;;7.90;99.90;;;;;;4158919;28;20650;-68
2021/03/12 01:55:41;;;;;;;5.83;2.50;;;8.00;99.90;;;;;;4157720;28;20437;-68
2021/03/12 01:57:42;;;;;;;7.22;2.33;;;8.00;99.90;;;;;;4158011;28;20041;-68
2021/03/12 01:59:42;;;;;;;9.32;2.35;;;8.00;99.90;;;;;;4156853;28;20052;-68
2021/03/12 02:01:43;;;;;;;11.25;2.65;;;7.90;99.90;;;;;;4158929;28;20532;-68
2021/03/12 02:03:44;;;;;;;19.75;2.72;;;8.00;99.90;;;;;;4158778;28;20437;-68
2021/03/12 02:05:44;;;;;;;12.48;2.80;;;7.90;99.90;;;;;;4158408;28;20076;-68
2021/03/12 02:07:46;;;;;;;9.25;2.90;;;7.90;99.90;;;;;;4154185;28;20041;-68
2021/03/12 02:09:47;;;;;;;15.95;3.60;;;7.90;99.90;;;;;;4157511;28;20056;-68
2021/03/12 02:12:11;;;;;;;7.43;2.35;;;8.00;99.90;;;;;;4155698;28;20409;-68
2021/03/12 02:14:31;;;;;;;9.70;3.35;;;8.00;99.90;;;;;;4154885;28;20049;-68
2021/03/12 02:16:47;;;;;;;7.93;2.80;;;7.90;99.90;;;;;;4151085;28;20412;-68
2021/03/12 02:19:20;;;;;;;8.98;3.35;;;7.90;99.90;;;;;;4156922;28;20038;-68
2021/03/12 02:21:46;;;;;;;11.13;3.03;;;7.90;99.90;;;;;;4153111;28;20108;-68
2021/03/12 02:24:04;;;;;;;10.02;2.88;;;7.90;99.90;;;;;;4153489;28;20509;-68
2021/03/12 02:26:11;;;;;;;7.82;2.47;;;7.80;99.90;;;;;;4158920;28;20429;-68
2021/03/12 02:28:13;;;;;;;8.65;3.00;;;7.80;99.90;;;;;;4157206;28;20034;-68
2021/03/12 02:30:15;;;;;;;9.20;2.70;;;7.80;99.90;;;;;;4157095;28;20034;-68
2021/03/12 02:32:20;;;;;;;9.95;2.70;;;7.80;99.90;;;;;;4157700;28;20052;-68
2021/03/12 02:34:25;;;;;;;13.18;2.45;;;7.80;99.90;;;;;;4154195;28;20033;-68
2021/03/12 02:36:29;;;;;;;10.30;2.58;;;7.80;99.90;;;;;;4148887;28;20545;-68
2021/03/12 02:38:32;;;;;;;13.73;3.10;;;7.80;99.90;;;;;;4141354;28;20018;-68
2021/03/12 02:40:34;;;;;;;;;;;7.80;99.90;;;;;;4158219;28;20041;-68
2021/03/12 02:42:38;;;;;;;8.52;2.35;;;7.80;99.90;;;;;;4156518;28;19920;-68
2021/03/12 02:44:38;;;;;;;5.95;2.30;;;7.80;99.90;;;;;;4161075;28;20115;-68
2021/03/12 02:46:40;;;;;;;8.38;2.65;;;7.80;99.90;;;;;;4156323;28;20037;-68
2021/03/12 02:48:42;;;;;;;8.38;2.50;;;7.80;99.90;;;;;;4151590;28;20033;-68
2021/03/12 02:50:44;;;;;;;10.48;2.60;;;7.80;99.90;;;;;;4159896;28;20044;-68
2021/03/12 02:52:46;;;;;;;6.57;2.38;;;7.80;99.90;;;;;;4162557;28;20114;-68
2021/03/12 02:54:47;;;;;;;16.08;3.90;;;7.80;99.90;;;;;;4162030;28;20044;-68
2021/03/12 02:56:49;;;;;;;7.90;2.50;;;7.80;99.90;;;;;;4161434;28;20045;-68
2021/03/12 02:58:50;;;;;;;8.15;2.55;;;7.80;99.90;;;;;;4161405;28;20091;-68
2021/03/12 03:00:52;;;;;;;7.60;2.50;;;7.80;99.90;;;;;;4153575;28;20065;-68
2021/03/12 03:02:54;;;;;;;9.43;2.22;;;7.80;99.90;;;;;;4161556;28;20034;-68
2021/03/12 03:04:57;;;;;;;8.50;2.73;;;7.80;99.90;;;;;;4161676;28;20046;-68
2021/03/12 03:06:58;;;;;;;10.63;2.28;;;7.70;99.90;;;;;;4159554;28;20520;-68
2021/03/12 03:08:59;;;;;;;11.85;3.05;;;7.80;99.90;;;;;;4161180;28;20034;-68
2021/03/12 03:11:03;;;;;;;11.82;2.83;;;7.80;99.90;;;;;;4159865;28;20053;-68
2021/03/12 03:13:04;;;;;;;12.25;3.05;;;7.80;99.90;;;;;;4161118;28;20092;-68
2021/03/12 03:15:06;;;;;;;12.82;2.58;;;7.70;99.90;;;;;;4159388;28;20049;-68
2021/03/12 03:17:09;;;;;;;9.33;2.60;;;7.80;99.90;;;;;;4159066;28;20042;-68
2021/03/12 03:19:10;;;;;;;12.63;2.63;;;7.80;99.90;;;;;;4160741;28;20034;-68
2021/03/12 03:21:11;;;;;;;10.48;2.40;;;7.80;99.90;;;;;;4161111;28;20042;-68
2021/03/12 03:23:12;;;;;;;8.75;3.08;;;7.70;99.90;;;;;;4156520;28;20721;-68
2021/03/12 03:25:14;;;;;;;8.90;2.80;;;7.80;99.90;;;;;;4143768;28;20092;-68
2021/03/12 03:27:17;;;;;;;11.80;3.10;;;7.80;99.90;;;;;;4152768;28;20030;-68
2021/03/12 03:29:18;;;;;;;11.25;2.97;;;7.70;99.90;;;;;;4159115;28;20030;-68
2021/03/12 03:31:21;;;;;;;9.32;2.42;;;7.80;99.90;;;;;;4161137;28;20034;-68
2021/03/12 03:33:22;;;;;;;11.52;3.22;;;7.80;99.90;;;;;;4158608;28;20038;-68
2021/03/12 03:35:23;;;;;;;11.45;2.70;;;7.80;99.90;;;;;;4161196;28;20390;-68
2021/03/12 03:37:25;;;;;;;9.52;2.72;;;7.80;99.90;;;;;;4156101;28;20041;-68
2021/03/12 03:39:28;;;;;;;12.73;2.90;;;7.80;99.90;;;;;;4160875;28;20037;-68
2021/03/12 03:41:29;;;;;;;11.40;3.20;;;7.80;99.90;;;;;;4161274;28;20052;-68
2021/03/12 03:43:32;;;;;;;13.90;2.25;;;7.70;99.90;;;;;;4161487;28;20116;-68
2021/03/12 03:45:35;;;;;;;18.85;2.97;;;7.70;99.90;;;;;;4160170;28;20038;-68
2021/03/12 03:47:36;;;;;;;14.33;3.10;;;7.70;99.90;;;;;;4161406;28;20030;-68
2021/03/12 03:49:39;;;;;;;14.70;3.10;;;7.70;99.90;;;;;;4159679;28;20429;-68
2021/03/12 03:51:41;;;;;;;6.85;2.55;;;7.70;99.90;;;;;;4161042;28;20064;-68
2021/03/12 03:53:43;;;;;;;16.23;3.25;;;7.70;99.90;;;;;;4161071;28;20045;-68
2021/03/12 03:55:44;;;;;;;13.82;3.35;;;7.70;99.90;;;;;;4159777;28;20044;-68
2021/03/12 03:57:45;;;;;;;10.25;3.03;;;7.60;99.90;;;;;;4156709;28;20384;-68
2021/03/12 03:59:47;;;;;;;13.45;2.70;;;7.60;99.90;;;;;;4156971;28;20029;-68
2021/03/12 04:01:48;;;;;;;8.10;2.53;;;7.60;99.90;;;;;;4159477;28;20099;-68
2021/03/12 04:03:51;;;;;;;9.73;3.05;;;7.60;99.90;;;;;;4157405;28;20029;-68
2021/03/12 04:05:55;;;;;;;;;;;7.60;99.90;;;;;;4160606;28;20375;-68
2021/03/12 04:07:58;;;;;;;10.20;3.17;;;7.60;99.90;;;;;;4160660;28;20007;-68
2021/03/12 04:09:59;;;;;;;12.05;3.03;;;7.60;99.90;;;;;;4160577;28;20091;-68
2021/03/12 04:12:00;;;;;;;14.32;3.20;;;7.60;99.90;;;;;;4159829;28;20037;-68
2021/03/12 04:14:02;;;;;;;13.32;2.88;;;7.60;99.90;;;;;;4159078;28;20117;-68
2021/03/12 04:16:04;;;;;;;10.57;2.83;;;7.70;99.90;;;;;;4159740;28;20033;-68
2021/03/12 04:18:05;;;;;;;9.15;2.45;;;7.60;99.90;;;;;;4157662;28;20036;-68
2021/03/12 04:20:07;;;;;;;;;;;7.60;99.90;;;;;;4158142;28;20441;-68
2021/03/12 04:22:08;;;;;;;10.32;2.42;;;7.60;99.90;;;;;;4157672;28;19919;-68
2021/03/12 04:24:10;;;;;;;14.10;3.50;;;7.50;99.90;;;;;;4156678;28;20043;-68
2021/03/12 04:26:12;;;;;;;5.15;2.40;;;7.50;99.90;;;;;;4160110;28;20030;-68
2021/03/12 04:28:13;;;;;;;13.23;2.78;;;7.50;99.90;;;;;;4158298;28;20029;-68
2021/03/12 04:30:15;;;;;;;8.82;2.53;;;7.50;99.90;;;;;;4159786;28;20457;-68
2021/03/12 04:32:16;;;;;;;6.13;2.03;;;7.50;99.90;;;;;;4159414;28;20029;-68
2021/03/12 04:34:17;;;;;;;11.50;3.35;;;7.50;99.90;;;;;;4158444;28;20037;-68
2021/03/12 04:36:18;;;;;;;11.27;3.00;;;7.50;99.90;;;;;;4159953;28;20048;-68
2021/03/12 04:38:20;;;;;;;14.95;3.00;;;7.40;99.90;;;;;;4158054;28;20025;-68
2021/03/12 04:40:22;;;;;;;11.97;2.93;;;7.30;99.90;;;;;;4158395;28;20030;-68
2021/03/12 04:42:23;;;;;;;12.43;3.13;;;7.40;99.90;;;;;;4159932;28;20265;-68
2021/03/12 04:44:23;;;;;;;11.55;2.47;;;7.40;99.90;;;;;;4159542;28;20051;-68
2021/03/12 04:46:24;;;;;;;12.65;3.10;;;7.30;99.90;;;;;;4159757;28;20033;-68
2021/03/12 04:48:25;;;;;;;13.50;2.83;;;7.40;99.90;;;;;;4158541;28;20040;-68
2021/03/12 04:50:28;;;;;;;8.00;2.22;;;7.30;99.90;;;;;;4158578;28;20377;-68
2021/03/12 04:52:28;;;;;;;13.27;2.72;;;7.30;99.90;;;;;;4159581;28;20168;-68
2021/03/12 04:54:29;;;;;;;9.50;2.92;;;7.20;99.90;;;;;;4157217;28;20091;-68
2021/03/12 04:56:30;;;;;;;8.90;2.05;;;7.20;99.90;;;;;;4158950;28;20045;-68
2021/03/12 04:58:31;;;;;;;10.35;2.83;;;7.10;99.90;;;;;;4160099;28;20087;-68
2021/03/12 05:00:32;;;;;;;9.07;2.42;;;7.10;99.90;;;;;;4160033;28;20037;-68
2021/03/12 05:02:34;;;;;;;9.82;2.08;;;7.10;99.90;;;;;;4158853;28;20473;-68
2021/03/12 05:04:35;;;;;;;10.80;2.67;;;7.20;99.90;;;;;;4158260;28;20397;-68
2021/03/12 05:06:40;;;;;;;11.10;2.15;;;7.20;99.90;;;;;;4156814;28;20029;-68
2021/03/12 05:08:44;;;;;;;7.60;2.15;;;7.10;99.90;;;;;;4159366;28;20033;-68
2021/03/12 05:10:56;;;;;;;16.30;2.60;;;7.10;99.90;;;;;;4158407;28;20398;-68
2021/03/12 05:12:57;;;;;;;;;;;7.10;99.90;;;;;;4159379;28;20529;-68
2021/03/12 05:14:58;;;;;;;6.50;1.80;;;7.10;99.90;;;;;;4154468;28;19966;-68
2021/03/12 05:16:59;;;;;;;15.15;2.95;;;7.10;99.90;;;;;;4157418;28;20033;-68
2021/03/12 05:18:59;;;;;;;11.50;2.20;;;7.10;99.90;;;;;;4156791;28;20045;-68
2021/03/12 05:21:00;;;;;;;9.85;2.60;;;7.10;99.90;;;;;;4157761;28;20037;-68
2021/03/12 05:23:01;;;;;;;10.68;2.25;;;7.00;99.90;;;;;;4158564;28;20082;-68
2021/03/12 05:25:01;;;;;;;9.13;2.13;;;7.00;99.90;;;;;;4156789;28;20036;-68
2021/03/12 05:27:02;;;;;;;10.20;2.42;;;7.00;99.90;;;;;;4181085;28;20095;-68
2021/03/12 05:29:03;;;;;;;17.08;2.40;;;7.00;99.90;;;;;;4156573;28;20037;-68
2021/03/12 05:31:03;;;;;;;8.07;1.88;;;6.90;99.90;;;;;;4157955;28;20621;-68
2021/03/12 05:33:05;;;;;;;14.95;2.50;;;7.00;99.90;;;;;;4150961;28;20840;-68
2021/03/12 05:35:06;;;;;;;9.93;2.45;;;6.90;99.90;;;;;;4155869;28;20044;-68
2021/03/12 05:37:06;;;;;;;6.25;1.80;;;7.00;99.90;;;;;;4157067;28;20148;-68
2021/03/12 05:39:07;;;;;;;8.63;2.08;;;7.00;99.90;;;;;;4155660;28;20038;-68
2021/03/12 05:41:09;;;;;;;12.30;2.65;;;7.00;99.90;;;;;;4147064;28;20034;-68
2021/03/12 05:43:11;;;;;;;9.50;2.20;;;7.00;99.90;;;;;;4151038;28;21574;-68
2021/03/12 05:45:12;;;;;;;7.63;2.30;;;7.00;99.90;;;;;;4151388;28;20113;-68
2021/03/12 05:47:13;;;;;;;11.50;2.25;;;7.00;99.90;;;;;;4163117;28;20538;-68
2021/03/12 05:49:14;;;;;;;12.00;3.13;;;7.00;99.90;;;;;;4148444;28;20049;-68
2021/03/12 05:51:15;;;;;;;12.75;2.90;;;7.00;99.90;;;;;;4156864;28;20121;-68
2021/03/12 05:53:16;;;;;;;7.88;2.00;;;7.00;99.90;;;;;;4154696;28;20030;-68
2021/03/12 05:55:18;;;;;;;12.10;2.22;;;7.00;99.90;;;;;;4159061;28;20037;-68
2021/03/12 05:57:19;;;;;;;9.53;2.57;;;7.00;99.90;;;;;;4154923;28;20030;-68
2021/03/12 05:59:20;;;;;;;9.18;2.10;;;6.90;99.90;;;;;;4157692;28;20044;-68
2021/03/12 06:01:21;;;;;;;11.15;2.15;;;7.00;99.90;;;;;;4158073;28;20616;-68
2021/03/12 06:03:21;;;;;;;12.55;2.20;;;6.90;99.90;;;;;;4157930;28;20029;-68
2021/03/12 06:05:22;;;;;;;9.43;2.55;;;6.90;99.90;;;;;;4156722;28;20036;-68
2021/03/12 06:07:23;;;;;;;10.55;2.55;;;6.90;99.90;;;;;;4132334;28;20045;-68
2021/03/12 06:09:24;;;;;;;9.70;2.35;;;6.90;99.90;;;;;;4150311;28;20029;-68
2021/03/12 06:11:24;;;;;;;7.53;1.80;;;7.00;99.90;;;;;;4158691;28;20363;-68
2021/03/12 06:13:26;;;;;;;14.13;2.50;;;7.00;99.90;;;;;;4157308;28;20429;-68
2021/03/12 06:15:33;;;;;;;8.77;2.10;;;6.90;99.90;;;;;;4159562;28;20040;-68
2021/03/12 06:17:42;;;;;;;8.32;2.13;;;7.00;99.90;;;;;;4158652;28;20042;-68
2021/03/12 06:19:55;;;;;;;11.93;2.65;;;6.90;99.90;;;;;;4152053;28;20067;-68
2021/03/12 06:22:06;;;;;;;8.75;2.00;;;7.00;99.90;;;;;;4149657;28;20030;-68
2021/03/12 06:24:33;;;;;;;13.57;2.67;;;7.00;99.90;;;;;;4158574;28;20044;-68
2021/03/12 06:26:46;;;;;;;9.25;2.15;;;7.00;99.90;;;;;;4157966;28;20060;-69
2021/03/12 06:29:07;;;;;;;;;;;7.00;99.90;;;;;;4161068;28;20108;-68
2021/03/12 06:31:26;;;;;;;8.90;1.95;;;7.10;99.90;;;;;;4160391;28;19924;-68
2021/03/12 06:33:32;;;;;;;12.95;2.00;;;7.10;99.90;;;;;;4159973;28;20100;-68
2021/03/12 06:35:38;;;;;;;12.52;2.00;;;7.10;99.90;;;;;;4156400;28;20030;-68
2021/03/12 06:38:07;;;;;;;11.32;2.53;;;7.10;99.90;;;;;;4141428;28;20037;-68
2021/03/12 06:40:26;;;;;;;11.45;2.35;;;7.10;99.90;;;;;;4160073;28;20104;-68
2021/03/12 06:42:27;;;;;;;8.88;2.22;;;7.10;99.90;;;;;;4159560;28;20125;-68
2021/03/12 06:44:33;;;;;;;12.10;2.65;;;7.10;99.90;;;;;;4160166;28;20108;-68
2021/03/12 06:47:02;;;;;;;12.50;2.40;;;7.10;99.90;;;;;;4161608;28;20034;-69
2021/03/12 06:49:02;;;;;;;8.63;2.15;;;7.10;99.90;;;;;;4148449;28;20049;-68
2021/03/12 06:51:11;;;;;;;13.85;3.03;;;7.10;99.90;;;;;;4159438;28;20037;-68
2021/03/12 06:53:25;;;;;;;8.73;1.98;;;7.20;99.90;;;;;;4162635;28;20049;-68
2021/03/12 06:55:42;;;;;;;8.30;2.33;;;7.10;99.90;;;;;;4155558;28;20390;-68
2021/03/12 06:57:43;;;;;;;14.68;2.78;;;7.10;99.90;;;;;;4158418;28;20045;-68
2021/03/12 06:59:44;;;;;;;15.27;3.10;;;7.20;99.90;;;;;;4159625;28;20045;-68
2021/03/12 07:01:56;;;;;;;13.82;2.78;;;7.20;99.90;;;;;;4154263;28;20374;-68
2021/03/12 07:04:11;;;;;;;10.73;2.95;;;7.20;99.90;;;;;;4161093;28;20037;-68
2021/03/12 07:06:16;;;;;;;17.55;3.50;;;7.20;99.90;;;;;;4159253;28;20029;-68
2021/03/12 07:08:37;;;;;;;13.15;2.55;;;7.20;99.90;;;;;;4161785;28;20061;-69
2021/03/12 07:10:38;;;;;;;18.20;3.85;;;7.30;99.90;;;;;;4160965;28;20044;-69
2021/03/12 07:12:45;;;;;;;15.63;3.28;;;7.30;99.90;;;;;;4159427;28;20061;-69
2021/03/12 07:14:46;;;;;;;17.38;3.72;;;7.30;99.90;;;;;;4161095;28;20656;-69
2021/03/12 07:16:49;;;;;;;15.85;3.20;;;7.30;99.90;;;;;;4160987;28;20041;-69
2021/03/12 07:18:50;;;;;;;18.42;3.65;;;7.40;99.90;;;;;;4164436;28;20037;-69
2021/03/12 07:20:51;;;;;;;15.63;3.63;;;7.30;99.90;;;;;;4147195;28;20043;-69
2021/03/12 07:22:53;;;;;;;16.30;3.40;;;7.40;99.90;;;;;;4156286;28;20379;-69
2021/03/12 07:24:55;;;;;;;18.83;3.72;;;7.40;99.90;;;;;;4155225;28;20817;-69
2021/03/12 07:26:57;;;;;;;11.98;3.47;;;7.40;99.90;;;;;;4149291;28;20079;-69
2021/03/12 07:29:00;;;;;;;23.85;3.60;;;7.50;99.90;;;;;;4159384;28;20053;-69
2021/03/12 07:31:03;;;;;;;;;;;7.50;99.90;;;;;;4156969;28;20161;-69
2021/03/12 07:33:04;;;;;;;12.30;2.90;;;7.50;99.90;;;;;;4159235;28;19936;-69
2021/03/12 07:35:06;;;;;;;20.08;3.50;;;7.50;99.90;;;;;;4155185;28;20036;-69
2021/03/12 07:37:09;;;;;;;16.02;3.67;;;7.50;99.90;;;;;;4149986;28;20395;-70
2021/03/12 07:39:14;;;;;;;12.05;3.35;;;7.50;99.90;;;;;;4154300;28;20180;-69
2021/03/12 07:41:14;;;;;;;14.20;3.15;;;7.50;99.90;;;;;;4155941;28;20033;-70
2021/03/12 07:43:16;;;;;;;13.50;3.17;;;7.60;99.90;;;;;;4140198;28;20041;-70
2021/03/12 07:45:19;;;;;;;19.42;3.35;;;7.60;99.90;;;;;;4157750;28;20033;-70
2021/03/12 07:47:27;;;;;;;14.07;3.38;;;7.60;99.90;;;;;;4157646;28;20038;-69
2021/03/12 07:49:33;;;;;;;17.00;3.63;;;7.60;99.90;;;;;;4152840;28;20399;-70
2021/03/12 07:51:46;;;;;;;15.65;3.45;;;7.60;99.90;;;;;;4152461;28;20176;-70
2021/03/12 07:53:51;;;;;;;16.85;4.30;;;7.60;99.90;;;;;;4157513;28;20128;-70
2021/03/12 07:55:53;;;;;;;12.68;3.15;;;7.60;99.90;;;;;;4158418;28;20167;-69
2021/03/12 07:57:53;;;;;;;18.25;6.40;;;7.70;99.90;;;;;;4154970;28;20511;-69
2021/03/12 07:59:55;;;;;;;25.00;5.65;;;7.70;99.90;;;;;;4152802;28;20087;-70
2021/03/12 08:01:55;;;;;;;14.35;3.70;;;7.70;99.90;;;;;;4151093;28;20034;-69
2021/03/12 08:03:56;;;;;;;12.00;3.15;;;7.70;99.90;;;;;;4154447;28;20045;-70
2021/03/12 08:05:57;;;;;;;15.40;3.83;;;7.70;99.90;;;;;;4155012;28;20129;-70
2021/03/12 08:07:59;;;;;;;17.87;4.10;;;7.70;99.90;;;;;;4154602;28;20048;-69
2021/03/12 08:10:15;;;;;;;10.95;3.05;;;7.80;99.90;;;;;;4154081;28;20045;-69
2021/03/12 08:12:34;;;;;;;20.02;5.53;;;7.80;99.90;;;;;;4147852;28;20377;-69
2021/03/12 08:14:36;;;;;;;20.75;4.00;;;7.90;99.90;;;;;;4150621;28;20026;-69
2021/03/12 08:16:57;;;;;;;21.10;3.70;;;7.90;99.90;;;;;;4157500;28;20072;-70
2021/03/12 08:19:50;;;;;;;19.52;2.85;;;7.90;99.90;;;;;;4154890;28;20033;-70
2021/03/12 08:21:53;;;;;;;12.30;2.83;;;8.00;99.90;;;;;;4138617;28;20044;-69
2021/03/12 08:23:54;;;;;;;12.55;3.53;;;8.10;99.90;;;;;;4156792;28;20065;-70
2021/03/12 08:25:54;;;;;;;13.93;3.45;;;8.10;99.90;;;;;;4159995;28;20044;-70
2021/03/12 08:27:55;;;;;;;19.80;3.42;;;8.20;99.90;;;;;;4165940;28;20030;-69
2021/03/12 08:29:56;;;;;;;17.60;3.60;;;8.30;99.90;;;;;;4159491;28;20126;-70
2021/03/12 08:31:57;;;;;;;17.17;3.33;;;8.30;99.90;;;;;;4152196;28;20473;-70
2021/03/12 08:33:58;;;;;;;15.30;3.55;;;8.30;99.90;;;;;;4153680;28;20026;-70
2021/03/12 08:35:59;;;;;;;10.75;3.08;;;8.40;99.90;;;;;;4153648;28;20034;-70
2021/03/12 08:38:01;;;;;;;12.43;3.00;;;8.40;99.90;;;;;;4152512;28;20093;-70
2021/03/12 08:40:14;;;;;;;13.23;3.00;;;8.40;99.90;;;;;;4155171;28;20560;-69
2021/03/12 08:42:16;;;;;;;;;;;8.40;99.90;;;;;;4158973;28;20040;-69
2021/03/12 08:44:16;;;;;;;12.50;3.25;;;8.40;99.90;;;;;;4155151;28;19960;-70
2021/03/12 08:46:28;;;;;;;17.52;3.53;;;8.50;99.90;;;;;;4157019;28;20095;-70
2021/03/12 08:48:34;;;;;;;14.38;3.78;;;8.50;99.90;;;;;;4152444;28;20925;-69
2021/03/12 08:50:39;;;;;;;22.88;4.32;;;8.50;99.90;;;;;;4152268;28;20041;-70
2021/03/12 08:52:46;;;;;;;16.42;4.07;;;8.50;99.90;;;;;;4154749;28;20725;-70
2021/03/12 08:54:49;;;;;;;16.88;3.63;;;8.50;99.90;;;;;;4139047;28;20038;-69
2021/03/12 08:56:50;;;;;;;20.73;3.95;;;8.50;99.90;;;;;;4158721;28;20047;-69
2021/03/12 08:58:50;;;;;;;15.52;3.67;;;8.50;99.90;;;;;;4156995;28;20041;-70
2021/03/12 09:00:54;;;;;;;15.02;4.63;;;8.50;99.90;;;;;;4158632;28;20042;-69
2021/03/12 09:03:20;;;;;;;21.38;4.70;;;8.50;99.90;;;;;;4159452;28;20041;-69
2021/03/12 09:05:28;;;;;;;18.83;4.30;;;8.60;99.90;;;;;;4156729;28;20036;-69
2021/03/12 09:07:28;;;;;;;26.88;4.22;;;8.50;99.90;;;;;;4154400;28;20045;-69
2021/03/12 09:09:29;;;;;;;16.92;3.70;;;8.50;99.90;;;;;;4155087;28;20104;-69
2021/03/12 09:11:30;;;;;;;21.30;4.47;;;8.50;99.90;;;;;;4155471;28;20095;-69
2021/03/12 09:13:33;;;;;;;12.10;3.47;;;8.50;99.90;;;;;;4158313;28;20038;-69
2021/03/12 09:15:37;;;;;;;14.68;3.30;;;8.50;99.90;;;;;;4157786;28;20049;-69
2021/03/12 09:17:39;;;;;;;21.13;4.03;;;8.50;99.90;;;;;;4157557;28;20501;-70
2021/03/12 09:19:39;;;;;;;17.80;3.10;;;8.60;99.90;;;;;;4159369;28;20026;-70
2021/03/12 09:21:40;;;;;;;13.63;2.97;;;8.60;99.90;;;;;;4153797;28;20036;-70
2021/03/12 09:23:47;;;;;;;23.48;3.95;;;8.70;99.90;;;;;;4156503;28;20060;-70
2021/03/12 09:25:57;;;;;;;14.57;3.58;;;8.70;99.90;;;;;;4158412;28;20115;-70
2021/03/12 09:28:00;;;;;;;14.80;3.20;;;8.70;99.90;;;;;;4157284;28;20060;-70
2021/03/12 09:30:03;;;;;;;10.18;2.95;;;8.80;99.90;;;;;;4158770;28;20037;-70
2021/03/12 09:32:05;;;;;;;14.25;3.00;;;8.80;99.90;;;;;;4153572;28;20448;-70
2021/03/12 09:34:13;;;;;;;21.63;4.03;;;8.90;99.90;;;;;;4147804;28;20125;-70
2021/03/12 09:36:31;;;;;;;13.88;3.28;;;8.90;99.90;;;;;;4153994;28;20042;-69
2021/03/12 09:38:38;;;;;;;16.65;3.70;;;9.00;99.90;;;;;;4157169;28;20482;-68
2021/03/12 09:40:41;;;;;;;20.95;4.20;;;8.90;99.90;;;;;;4155938;28;20018;-68
2021/03/12 09:42:42;;;;;;;17.42;4.05;;;9.00;99.90;;;;;;4156566;28;20048;-69
2021/03/12 09:44:46;;;;;;;16.17;3.40;;;9.00;99.90;;;;;;4155652;28;20022;-68
2021/03/12 09:46:47;;;;;;;20.13;3.40;;;9.00;99.90;;;;;;4156101;28;20453;-68
2021/03/12 09:48:48;;;;;;;22.05;4.10;;;9.00;99.90;;;;;;4155372;28;20120;-68
2021/03/12 09:50:49;;;;;;;12.77;3.25;;;9.00;99.90;;;;;;4156965;28;20824;-69
2021/03/12 09:52:52;;;;;;;19.60;4.15;;;9.00;99.90;;;;;;4152828;28;20465;-69
2021/03/12 09:54:54;;;;;;;15.40;2.88;;;9.00;99.90;;;;;;4152113;28;20116;-69
2021/03/12 09:56:56;;;;;;;13.07;3.35;;;9.10;99.90;;;;;;4157181;28;20033;-69
2021/03/12 09:58:58;;;;;;;15.05;3.38;;;9.10;99.90;;;;;;4152791;28;20473;-69
2021/03/12 10:01:16;;;;;;;13.38;3.50;;;9.20;99.90;;;;;;4146906;28;20046;-69
2021/03/12 10:03:28;;;;;;;18.92;3.65;;;9.20;99.90;;;;;;4155350;28;20037;-68
2021/03/12 10:05:30;;;;;;;15.03;3.27;;;9.30;99.90;;;;;;4156110;28;20585;-69
2021/03/12 10:07:42;;;;;;;16.67;2.90;;;9.40;99.90;;;;;;4157079;28;20292;-69
2021/03/12 10:09:48;;;;;;;13.13;3.45;;;9.50;99.90;;;;;;4156390;28;20061;-69
2021/03/12 10:11:49;;;;;;;20.88;3.80;;;9.50;99.90;;;;;;4155879;28;20029;-69
2021/03/12 10:13:49;;;;;;;20.90;4.35;;;9.50;99.90;;;;;;4157214;28;20029;-69
2021/03/12 10:15:50;;;;;;;16.80;3.78;;;9.60;99.90;;;;;;4155706;28;20207;-69
2021/03/12 10:17:51;;;;;;;15.93;3.78;;;9.60;99.90;;;;;;4158764;28;20440;-69
2021/03/12 10:20:05;;;;;;;18.02;3.45;;;9.60;99.90;;;;;;4147506;28;20408;-69
2021/03/12 10:22:21;;;;;;;14.20;3.38;;;9.60;99.90;;;;;;4149258;28;20076;-69
2021/03/12 10:24:26;;;;;;;16.00;3.28;;;9.60;99.90;;;;;;4146744;28;20034;-69
2021/03/12 10:26:28;;;;;;;22.83;4.88;;;9.70;99.90;;;;;;4151961;28;20056;-68
2021/03/12 10:28:29;;;;;;;;;;;9.60;99.90;;;;;;4156385;28;20064;-69
2021/03/12 10:30:35;;;;;;;15.23;3.33;;;9.60;99.90;;;;;;4155044;28;19920;-69
2021/03/12 10:32:42;;;;;;;15.32;3.35;;;9.70;99.90;;;;;;4156041;28;20037;-69
2021/03/12 10:34:47;;;;;;;20.08;4.32;;;9.70;99.90;;;;;;4155710;28;20076;-69
2021/03/12 10:36:48;;;;;;;29.65;4.45;;;9.60;99.90;;;;;;4150076;28;20022;-69
2021/03/12 10:38:49;;;;;;;19.02;3.92;;;9.60;99.90;;;;;;4154682;28;20101;-69
2021/03/12 10:40:56;;;;;;;16.90;3.67;;;9.60;99.90;;;;;;4155909;28;20600;-69
2021/03/12 10:42:57;;;;;;;15.65;3.63;;;9.70;99.90;;;;;;4153135;28;20041;-69
2021/03/12 10:45:00;;;;;;;11.75;2.97;;;9.70;99.90;;;;;;4136027;28;20053;-69
2021/03/12 10:47:10;;;;;;;;;;;9.60;99.90;;;;;;4158363;28;20064;-68
2021/03/12 10:49:27;;;;;;;10.88;2.97;;;9.50;99.90;;;;;;4178983;28;19974;-69
2021/03/12 10:51:37;;;;;;;19.33;3.80;;;9.50;99.90;;;;;;4154143;28;20046;-69